Agat, GU

3:59 PM ChST on July 25, 2017 (GMT +1000)
Agat-Santa Rita WWTP | | Change Station

Elev 56 ft 13.40 °N, 144.67 °E | Updated 14 minutes ago

Partly Cloudy
Partly Cloudy
92.9 °F
Feels Like 112 °F
N
2.0
Wind Variable Wind from SW
Gusts 4.0 mph

Today
High -- | Low -- °F
--% Chance of Precip.
Yesterday
High -- | Low -- °F
Precip. -- in
Pressure 29.78 in
Visibility 10.0 miles
Clouds Clear
Heat Index 112 °F
Dew Point 80 °F
Humidity 66%
Rainfall 0.00 in
Snow Depth Not available.
6:04 AM 6:50 PM
Waxing Crescent, 5% visible
METAR PGUM 250554Z 16009KT 10SM CLR 31/25 A2980 RMK AO2 SLP082 T03060250 10311 20300 58007
Pressure 29.78 in
Visibility 10.0 miles
Clouds Clear
Heat Index 112 °F
Dew Point 80 °F
Humidity 66%
Rainfall 0.00 in
Snow Depth Not available.
6:04 AM 6:50 PM
Waxing Crescent, 5% visible
METAR PGUM 250554Z 16009KT 10SM CLR 31/25 A2980 RMK AO2 SLP082 T03060250 10311 20300 58007

Get Severe Weather Alerts

Thanks for signing up!

Be on the lookout for a verification email in your inbox.

You'll start receiving the daily forecast at 6 AM.

×

10-Day Weather Forecast

Almanac

Astronomy

Jul. 25, 2017 Rise Set
Actual Time
Civil Twilight
Nautical Twilight
Astronomical Twilight
Moon
Length of Visible Light
Length of Day
Tomorrow will be .
, % of the Moon is Illuminated

Today's Extremes

State Highs State Lows

Community

WunderPhotos

Category 6

Welcome to Category 6. This is the collective home for Weather Underground's featured writeups by Dr. Jeff Masters (right), Bob Henson (left), Chris Burt, and other regular contributors.

Nearby

Air Quality

  Air Quality AQ Index Pollutant
Not available.

Snow Depth

Station Depth Elevation

Earthquake Activity

City Distance Mag. Time & Date
Minimum magnitude displayed is 2.5.

Coastal Water Temperatures

Place Temperature

Stations

Nearby Weather Stations

Station Location Temp. Windchill Dew Point Humidity Wind Precip. Elev Updated Type
                   

Watches & Warnings

There are currently no watches in effect.